sensor_id;sensor_type;location;lat;lon;timestamp;pressure;altitude;pressure_sealevel;temperature;humidity
56944;BME280;42848;42.524;12.052;2022-09-17T00:01:00;95657.41;;;21.35;100.00
56944;BME280;42848;42.524;12.052;2022-09-17T00:03:27;95658.72;;;21.23;100.00
56944;BME280;42848;42.524;12.052;2022-09-17T00:06:04;95655.03;;;21.02;100.00
56944;BME280;42848;42.524;12.052;2022-09-17T00:08:30;95657.56;;;21.20;100.00
56944;BME280;42848;42.524;12.052;2022-09-17T00:10:57;95665.84;;;21.20;100.00
56944;BME280;42848;42.524;12.052;2022-09-17T00:13:23;95648.97;;;21.15;100.00
56944;BME280;42848;42.524;12.052;2022-09-17T00:15:49;95646.81;;;20.99;100.00
56944;BME280;42848;42.524;12.052;2022-09-17T00:18:17;95646.88;;;20.95;100.00
56944;BME280;42848;42.524;12.052;2022-09-17T00:20:45;95648.63;;;21.09;100.00
56944;BME280;42848;42.524;12.052;2022-09-17T00:23:12;95641.22;;;21.02;100.00
56944;BME280;42848;42.524;12.052;2022-09-17T00:25:39;95646.75;;;21.02;100.00
56944;BME280;42848;42.524;12.052;2022-09-17T00:28:06;95645.25;;;20.98;100.00
56944;BME280;42848;42.524;12.052;2022-09-17T00:30:32;95648.97;;;21.15;100.00
56944;BME280;42848;42.524;12.052;2022-09-17T00:32:57;95644.41;;;21.01;100.00
56944;BME280;42848;42.524;12.052;2022-09-17T00:35:24;95640.44;;;21.02;100.00
56944;BME280;42848;42.524;12.052;2022-09-17T00:37:51;95629.31;;;21.09;100.00
56944;BME280;42848;42.524;12.052;2022-09-17T00:40:17;95627.84;;;21.01;100.00
56944;BME280;42848;42.524;12.052;2022-09-17T00:42:43;95625.94;;;21.28;100.00
56944;BME280;42848;42.524;12.052;2022-09-17T00:45:10;95616.03;;;21.00;100.00
56944;BME280;42848;42.524;12.052;2022-09-17T00:47:43;95607.72;;;21.04;100.00
56944;BME280;42848;42.524;12.052;2022-09-17T00:50:31;95618.56;;;21.18;100.00
56944;BME280;42848;42.524;12.052;2022-09-17T00:53:04;95626.75;;;21.25;100.00
56944;BME280;42848;42.524;12.052;2022-09-17T00:55:36;95623.44;;;21.38;100.00
56944;BME280;42848;42.524;12.052;2022-09-17T00:58:05;95629.13;;;21.23;100.00
56944;BME280;42848;42.524;12.052;2022-09-17T01:00:32;95625.91;;;21.32;100.00
56944;BME280;42848;42.524;12.052;2022-09-17T01:02:58;95630.44;;;21.15;100.00
56944;BME280;42848;42.524;12.052;2022-09-17T01:05:33;95626.66;;;21.02;100.00
56944;BME280;42848;42.524;12.052;2022-09-17T01:08:15;95626.41;;;21.20;100.00
56944;BME280;42848;42.524;12.052;2022-09-17T01:13:35;95616.00;;;21.35;100.00
56944;BME280;42848;42.524;12.052;2022-09-17T01:18:45;95613.50;;;21.13;100.00
56944;BME280;42848;42.524;12.052;2022-09-17T01:21:31;95609.94;;;20.86;100.00
56944;BME280;42848;42.524;12.052;2022-09-17T01:24:24;95606.56;;;21.01;100.00
56944;BME280;42848;42.524;12.052;2022-09-17T01:27:15;95609.59;;;21.11;100.00
56944;BME280;42848;42.524;12.052;2022-09-17T01:41:07;95592.16;;;21.17;100.00
56944;BME280;42848;42.524;12.052;2022-09-17T01:43:40;95593.00;;;20.84;100.00
56944;BME280;42848;42.524;12.052;2022-09-17T01:46:15;95588.50;;;20.97;100.00
56944;BME280;42848;42.524;12.052;2022-09-17T01:48:46;95579.59;;;20.86;100.00
56944;BME280;42848;42.524;12.052;2022-09-17T01:51:16;95564.41;;;20.70;100.00
56944;BME280;42848;42.524;12.052;2022-09-17T01:53:49;95572.28;;;20.72;100.00
56944;BME280;42848;42.524;12.052;2022-09-17T01:56:21;95573.25;;;20.89;100.00
56944;BME280;42848;42.524;12.052;2022-09-17T01:58:58;95572.22;;;20.76;100.00
56944;BME280;42848;42.524;12.052;2022-09-17T02:01:28;95562.78;;;20.77;100.00
56944;BME280;42848;42.524;12.052;2022-09-17T02:04:06;95561.19;;;20.76;100.00
56944;BME280;42848;42.524;12.052;2022-09-17T02:06:37;95556.06;;;20.78;100.00
56944;BME280;42848;42.524;12.052;2022-09-17T02:09:15;95550.22;;;20.72;100.00
56944;BME280;42848;42.524;12.052;2022-09-17T02:11:46;95543.66;;;20.62;100.00
56944;BME280;42848;42.524;12.052;2022-09-17T02:14:27;95541.72;;;20.59;100.00
56944;BME280;42848;42.524;12.052;2022-09-17T02:17:01;95539.69;;;20.63;100.00
56944;BME280;42848;42.524;12.052;2022-09-17T02:19:34;95531.75;;;20.69;100.00
56944;BME280;42848;42.524;12.052;2022-09-17T02:25:03;95525.59;;;20.58;100.00
56944;BME280;42848;42.524;12.052;2022-09-17T02:27:56;95514.97;;;20.56;100.00
56944;BME280;42848;42.524;12.052;2022-09-17T02:30:24;95513.16;;;20.73;100.00
56944;BME280;42848;42.524;12.052;2022-09-17T02:32:50;95513.84;;;20.81;100.00
56944;BME280;42848;42.524;12.052;2022-09-17T02:35:15;95504.38;;;20.82;100.00
56944;BME280;42848;42.524;12.052;2022-09-17T02:37:42;95498.41;;;20.87;100.00
56944;BME280;42848;42.524;12.052;2022-09-17T02:40:09;95492.19;;;20.52;100.00
56944;BME280;42848;42.524;12.052;2022-09-17T02:45:35;95485.03;;;20.55;100.00
56944;BME280;42848;42.524;12.052;2022-09-17T02:48:18;95488.41;;;20.69;100.00
56944;BME280;42848;42.524;12.052;2022-09-17T02:50:58;95478.44;;;20.76;100.00
56944;BME280;42848;42.524;12.052;2022-09-17T02:59:21;95454.41;;;20.49;100.00
56944;BME280;42848;42.524;12.052;2022-09-17T03:01:52;95460.75;;;20.46;100.00
56944;BME280;42848;42.524;12.052;2022-09-17T03:04:22;95461.03;;;20.82;100.00
56944;BME280;42848;42.524;12.052;2022-09-17T03:06:51;95454.19;;;20.63;100.00
56944;BME280;42848;42.524;12.052;2022-09-17T03:09:17;95461.59;;;20.70;100.00
56944;BME280;42848;42.524;12.052;2022-09-17T03:11:43;95452.19;;;20.67;100.00
56944;BME280;42848;42.524;12.052;2022-09-17T03:14:08;95457.31;;;20.65;100.00
56944;BME280;42848;42.524;12.052;2022-09-17T03:16:34;95457.47;;;20.55;100.00
56944;BME280;42848;42.524;12.052;2022-09-17T03:18:59;95456.94;;;20.67;100.00
56944;BME280;42848;42.524;12.052;2022-09-17T03:21:25;95461.50;;;20.50;100.00
56944;BME280;42848;42.524;12.052;2022-09-17T03:23:50;95455.91;;;20.81;100.00
56944;BME280;42848;42.524;12.052;2022-09-17T03:26:17;95450.25;;;20.64;100.00
56944;BME280;42848;42.524;12.052;2022-09-17T03:28:43;95450.34;;;20.57;100.00
56944;BME280;42848;42.524;12.052;2022-09-17T03:31:08;95441.34;;;20.53;100.00
56944;BME280;42848;42.524;12.052;2022-09-17T03:33:34;95446.16;;;20.76;100.00
56944;BME280;42848;42.524;12.052;2022-09-17T03:35:59;95452.56;;;20.69;100.00
56944;BME280;42848;42.524;12.052;2022-09-17T03:38:25;95453.09;;;20.84;100.00
56944;BME280;42848;42.524;12.052;2022-09-17T03:41:17;95437.47;;;21.01;100.00
56944;BME280;42848;42.524;12.052;2022-09-17T03:43:42;95438.66;;;21.00;100.00
56944;BME280;42848;42.524;12.052;2022-09-17T03:46:08;95445.03;;;20.97;100.00
56944;BME280;42848;42.524;12.052;2022-09-17T03:48:33;95439.53;;;20.97;100.00
56944;BME280;42848;42.524;12.052;2022-09-17T03:51:02;95427.16;;;20.55;100.00
56944;BME280;42848;42.524;12.052;2022-09-17T03:53:27;95420.00;;;20.30;100.00
56944;BME280;42848;42.524;12.052;2022-09-17T03:55:53;95417.84;;;20.45;100.00
56944;BME280;42848;42.524;12.052;2022-09-17T03:58:18;95412.56;;;20.58;100.00
56944;BME280;42848;42.524;12.052;2022-09-17T04:00:44;95410.31;;;20.49;100.00
56944;BME280;42848;42.524;12.052;2022-09-17T04:03:09;95427.47;;;20.60;100.00
56944;BME280;42848;42.524;12.052;2022-09-17T04:05:35;95424.81;;;20.53;100.00
56944;BME280;42848;42.524;12.052;2022-09-17T04:08:02;95424.13;;;20.45;100.00
56944;BME280;42848;42.524;12.052;2022-09-17T04:10:27;95412.59;;;20.54;100.00
56944;BME280;42848;42.524;12.052;2022-09-17T04:12:53;95421.22;;;20.56;100.00
56944;BME280;42848;42.524;12.052;2022-09-17T04:15:19;95415.69;;;20.56;100.00
56944;BME280;42848;42.524;12.052;2022-09-17T04:17:44;95420.13;;;20.50;100.00
56944;BME280;42848;42.524;12.052;2022-09-17T04:20:10;95429.31;;;20.40;100.00
56944;BME280;42848;42.524;12.052;2022-09-17T04:22:35;95425.69;;;20.73;100.00
56944;BME280;42848;42.524;12.052;2022-09-17T04:25:01;95416.09;;;20.58;100.00
56944;BME280;42848;42.524;12.052;2022-09-17T04:27:26;95412.25;;;20.76;100.00
56944;BME280;42848;42.524;12.052;2022-09-17T04:29:52;95402.16;;;20.65;100.00
56944;BME280;42848;42.524;12.052;2022-09-17T04:32:17;95412.75;;;20.43;100.00
56944;BME280;42848;42.524;12.052;2022-09-17T04:34:43;95401.84;;;20.33;100.00
56944;BME280;42848;42.524;12.052;2022-09-17T04:37:08;95408.41;;;20.42;100.00
56944;BME280;42848;42.524;12.052;2022-09-17T04:39:34;95393.78;;;20.49;100.00
56944;BME280;42848;42.524;12.052;2022-09-17T04:42:00;95393.09;;;20.68;100.00
56944;BME280;42848;42.524;12.052;2022-09-17T04:44:25;95381.38;;;20.61;100.00
56944;BME280;42848;42.524;12.052;2022-09-17T04:46:51;95382.78;;;20.45;100.00
56944;BME280;42848;42.524;12.052;2022-09-17T04:49:16;95386.88;;;20.34;100.00
56944;BME280;42848;42.524;12.052;2022-09-17T04:51:42;95396.41;;;20.56;100.00
56944;BME280;42848;42.524;12.052;2022-09-17T04:54:07;95390.31;;;20.41;100.00
56944;BME280;42848;42.524;12.052;2022-09-17T04:56:33;95387.59;;;20.38;100.00
56944;BME280;42848;42.524;12.052;2022-09-17T04:58:59;95382.91;;;20.35;100.00
56944;BME280;42848;42.524;12.052;2022-09-17T05:01:24;95386.25;;;20.23;100.00
56944;BME280;42848;42.524;12.052;2022-09-17T05:03:50;95378.00;;;20.19;100.00
56944;BME280;42848;42.524;12.052;2022-09-17T05:06:15;95384.31;;;20.50;100.00
56944;BME280;42848;42.524;12.052;2022-09-17T05:08:41;95384.81;;;20.38;100.00
56944;BME280;42848;42.524;12.052;2022-09-17T05:11:07;95377.69;;;20.44;100.00
56944;BME280;42848;42.524;12.052;2022-09-17T05:13:32;95378.03;;;20.46;100.00
56944;BME280;42848;42.524;12.052;2022-09-17T05:15:58;95385.22;;;20.40;100.00
56944;BME280;42848;42.524;12.052;2022-09-17T05:18:24;95383.69;;;20.35;100.00
56944;BME280;42848;42.524;12.052;2022-09-17T05:20:51;95384.69;;;20.22;100.00
56944;BME280;42848;42.524;12.052;2022-09-17T05:23:16;95378.47;;;20.44;100.00
56944;BME280;42848;42.524;12.052;2022-09-17T05:25:43;95387.06;;;20.20;100.00
56944;BME280;42848;42.524;12.052;2022-09-17T05:28:08;95386.91;;;20.03;100.00
56944;BME280;42848;42.524;12.052;2022-09-17T05:30:34;95391.25;;;20.31;100.00
56944;BME280;42848;42.524;12.052;2022-09-17T05:33:04;95393.06;;;20.41;100.00
56944;BME280;42848;42.524;12.052;2022-09-17T05:35:32;95394.66;;;20.39;100.00
56944;BME280;42848;42.524;12.052;2022-09-17T05:38:01;95380.50;;;20.37;100.00
56944;BME280;42848;42.524;12.052;2022-09-17T05:40:28;95373.44;;;20.36;100.00
56944;BME280;42848;42.524;12.052;2022-09-17T05:43:02;95371.00;;;20.14;100.00
56944;BME280;42848;42.524;12.052;2022-09-17T05:45:29;95380.00;;;20.18;100.00
56944;BME280;42848;42.524;12.052;2022-09-17T05:47:59;95394.50;;;20.53;100.00
56944;BME280;42848;42.524;12.052;2022-09-17T05:50:26;95404.47;;;20.70;100.00
56944;BME280;42848;42.524;12.052;2022-09-17T05:52:53;95406.88;;;20.68;100.00
56944;BME280;42848;42.524;12.052;2022-09-17T05:55:20;95411.91;;;20.73;100.00
56944;BME280;42848;42.524;12.052;2022-09-17T05:57:49;95403.13;;;20.55;100.00
56944;BME280;42848;42.524;12.052;2022-09-17T06:00:16;95411.38;;;20.55;100.00
56944;BME280;42848;42.524;12.052;2022-09-17T06:02:42;95419.03;;;20.44;100.00
56944;BME280;42848;42.524;12.052;2022-09-17T06:05:08;95410.31;;;20.49;100.00
56944;BME280;42848;42.524;12.052;2022-09-17T06:07:35;95415.09;;;20.45;100.00
56944;BME280;42848;42.524;12.052;2022-09-17T06:10:03;95417.19;;;20.34;100.00
56944;BME280;42848;42.524;12.052;2022-09-17T06:12:29;95425.28;;;20.48;100.00
56944;BME280;42848;42.524;12.052;2022-09-17T06:14:55;95419.56;;;20.62;100.00
56944;BME280;42848;42.524;12.052;2022-09-17T06:17:20;95421.72;;;20.48;100.00
56944;BME280;42848;42.524;12.052;2022-09-17T06:19:46;95408.50;;;20.35;100.00
56944;BME280;42848;42.524;12.052;2022-09-17T06:22:11;95406.03;;;20.71;100.00
56944;BME280;42848;42.524;12.052;2022-09-17T06:24:37;95400.00;;;20.53;100.00
56944;BME280;42848;42.524;12.052;2022-09-17T06:27:02;95402.16;;;20.65;100.00
56944;BME280;42848;42.524;12.052;2022-09-17T06:29:29;95408.06;;;20.67;100.00
56944;BME280;42848;42.524;12.052;2022-09-17T06:31:55;95400.78;;;20.54;100.00
56944;BME280;42848;42.524;12.052;2022-09-17T06:34:20;95403.84;;;20.59;100.00
56944;BME280;42848;42.524;12.052;2022-09-17T06:36:47;95386.25;;;20.77;100.00
56944;BME280;42848;42.524;12.052;2022-09-17T06:39:13;95384.56;;;20.83;100.00
56944;BME280;42848;42.524;12.052;2022-09-17T06:41:40;95378.59;;;20.88;100.00
56944;BME280;42848;42.524;12.052;2022-09-17T06:44:07;95372.72;;;20.86;100.00
56944;BME280;42848;42.524;12.052;2022-09-17T06:46:32;95367.78;;;20.97;100.00
56944;BME280;42848;42.524;12.052;2022-09-17T06:48:58;95369.22;;;21.05;100.00
56944;BME280;42848;42.524;12.052;2022-09-17T06:51:23;95369.00;;;20.96;100.00
56944;BME280;42848;42.524;12.052;2022-09-17T06:53:49;95370.44;;;21.04;100.00
56944;BME280;42848;42.524;12.052;2022-09-17T06:56:15;95366.56;;;21.21;100.00
56944;BME280;42848;42.524;12.052;2022-09-17T06:58:40;95381.84;;;21.26;100.00
56944;BME280;42848;42.524;12.052;2022-09-17T07:01:08;95380.34;;;21.45;100.00
56944;BME280;42848;42.524;12.052;2022-09-17T07:03:35;95382.53;;;21.34;100.00
56944;BME280;42848;42.524;12.052;2022-09-17T07:06:01;95378.31;;;21.25;100.00
56944;BME280;42848;42.524;12.052;2022-09-17T07:08:27;95375.63;;;21.45;100.00
56944;BME280;42848;42.524;12.052;2022-09-17T07:10:57;95369.44;;;21.38;100.00
56944;BME280;42848;42.524;12.052;2022-09-17T07:13:23;95361.03;;;21.45;100.00
56944;BME280;42848;42.524;12.052;2022-09-17T07:15:54;95368.41;;;21.51;100.00
56944;BME280;42848;42.524;12.052;2022-09-17T07:18:21;95369.66;;;21.47;100.00
56944;BME280;42848;42.524;12.052;2022-09-17T07:21:03;95371.44;;;21.57;100.00
56944;BME280;42848;42.524;12.052;2022-09-17T07:23:31;95368.50;;;21.68;100.00
56944;BME280;42848;42.524;12.052;2022-09-17T07:26:11;95369.09;;;21.55;100.00
56944;BME280;42848;42.524;12.052;2022-09-17T07:28:40;95357.78;;;21.90;100.00
56944;BME280;42848;42.524;12.052;2022-09-17T07:31:09;95366.41;;;21.52;100.00
56944;BME280;42848;42.524;12.052;2022-09-17T07:33:36;95365.56;;;21.75;100.00
56944;BME280;42848;42.524;12.052;2022-09-17T07:36:05;95356.72;;;21.83;100.00
56944;BME280;42848;42.524;12.052;2022-09-17T07:38:31;95364.06;;;21.90;100.00
56944;BME280;42848;42.524;12.052;2022-09-17T07:43:31;95388.94;;;21.90;100.00
56944;BME280;42848;42.524;12.052;2022-09-17T07:45:58;95384.97;;;21.91;100.00
56944;BME280;42848;42.524;12.052;2022-09-17T07:48:25;95389.81;;;21.87;100.00
56944;BME280;42848;42.524;12.052;2022-09-17T07:50:52;95379.66;;;22.00;100.00
56944;BME280;42848;42.524;12.052;2022-09-17T07:53:17;95381.22;;;21.81;100.00
56944;BME280;42848;42.524;12.052;2022-09-17T07:55:54;95392.50;;;21.71;100.00
56944;BME280;42848;42.524;12.052;2022-09-17T07:58:21;95380.84;;;21.99;100.00
56944;BME280;42848;42.524;12.052;2022-09-17T08:00:47;95380.91;;;22.35;100.00
56944;BME280;42848;42.524;12.052;2022-09-17T08:03:13;95378.72;;;22.27;100.00
56944;BME280;42848;42.524;12.052;2022-09-17T08:05:39;95376.91;;;22.36;100.00
56944;BME280;42848;42.524;12.052;2022-09-17T08:08:05;95376.56;;;22.34;100.00
56944;BME280;42848;42.524;12.052;2022-09-17T08:10:31;95365.38;;;22.22;100.00
56944;BME280;42848;42.524;12.052;2022-09-17T08:12:58;95363.78;;;22.04;100.00
56944;BME280;42848;42.524;12.052;2022-09-17T08:15:24;95373.00;;;22.18;100.00
56944;BME280;42848;42.524;12.052;2022-09-17T08:17:50;95371.81;;;22.35;100.00
56944;BME280;42848;42.524;12.052;2022-09-17T08:20:17;95371.25;;;22.60;100.00
56944;BME280;42848;42.524;12.052;2022-09-17T08:22:43;95366.38;;;22.48;100.00
56944;BME280;42848;42.524;12.052;2022-09-17T08:25:09;95371.72;;;22.38;100.00
56944;BME280;42848;42.524;12.052;2022-09-17T08:27:36;95379.09;;;22.09;100.00
56944;BME280;42848;42.524;12.052;2022-09-17T08:30:06;95376.03;;;22.23;100.00
56944;BME280;42848;42.524;12.052;2022-09-17T08:32:32;95379.84;;;22.29;100.00
56944;BME280;42848;42.524;12.052;2022-09-17T08:34:57;95365.53;;;22.51;100.00
56944;BME280;42848;42.524;12.052;2022-09-17T08:37:23;95369.50;;;22.66;100.00
56944;BME280;42848;42.524;12.052;2022-09-17T08:39:48;95380.25;;;22.64;100.00
56944;BME280;42848;42.524;12.052;2022-09-17T08:44:46;95376.72;;;22.27;100.00
56944;BME280;42848;42.524;12.052;2022-09-17T08:49:47;95376.44;;;22.41;100.00
56944;BME280;42848;42.524;12.052;2022-09-17T09:05:47;95383.31;;;22.33;100.00
56944;BME280;42848;42.524;12.052;2022-09-17T09:08:32;95376.34;;;22.61;100.00
56944;BME280;42848;42.524;12.052;2022-09-17T09:11:24;95373.50;;;22.81;100.00
56944;BME280;42848;42.524;12.052;2022-09-17T09:14:10;95384.22;;;22.79;100.00
56944;BME280;42848;42.524;12.052;2022-09-17T09:16:42;95370.22;;;22.54;100.00
56944;BME280;42848;42.524;12.052;2022-09-17T09:19:36;95371.59;;;22.62;100.00
56944;BME280;42848;42.524;12.052;2022-09-17T09:30:59;95370.38;;;22.47;100.00
56944;BME280;42848;42.524;12.052;2022-09-17T09:33:38;95369.59;;;22.46;100.00
56944;BME280;42848;42.524;12.052;2022-09-17T09:36:14;95376.59;;;22.51;100.00
56944;BME280;42848;42.524;12.052;2022-09-17T09:38:54;95391.72;;;22.46;100.00
56944;BME280;42848;42.524;12.052;2022-09-17T09:41:48;95382.00;;;22.38;100.00
56944;BME280;42848;42.524;12.052;2022-09-17T09:44:16;95392.34;;;22.18;100.00
56944;BME280;42848;42.524;12.052;2022-09-17T09:57:46;95401.88;;;22.85;100.00
56944;BME280;42848;42.524;12.052;2022-09-17T10:00:39;95410.47;;;22.91;100.00
56944;BME280;42848;42.524;12.052;2022-09-17T10:08:17;95419.75;;;22.64;100.00
56944;BME280;42848;42.524;12.052;2022-09-17T10:11:24;95421.03;;;22.60;100.00
56944;BME280;42848;42.524;12.052;2022-09-17T10:13:49;95415.09;;;22.78;100.00
56944;BME280;42848;42.524;12.052;2022-09-17T10:18:46;95406.22;;;23.03;100.00
56944;BME280;42848;42.524;12.052;2022-09-17T10:21:31;95403.63;;;23.12;100.00
56944;BME280;42848;42.524;12.052;2022-09-17T10:23:58;95414.50;;;23.19;100.00
56944;BME280;42848;42.524;12.052;2022-09-17T10:26:30;95415.38;;;23.16;100.00
56944;BME280;42848;42.524;12.052;2022-09-17T10:29:01;95403.94;;;23.30;100.00
56944;BME280;42848;42.524;12.052;2022-09-17T10:31:51;95388.56;;;23.58;100.00
56944;BME280;42848;42.524;12.052;2022-09-17T10:34:30;95397.09;;;23.51;100.00
56944;BME280;42848;42.524;12.052;2022-09-17T10:36:56;95394.19;;;23.71;100.00
56944;BME280;42848;42.524;12.052;2022-09-17T10:41:56;95398.22;;;23.37;100.00
56944;BME280;42848;42.524;12.052;2022-09-17T10:44:24;95402.59;;;23.06;100.00
56944;BME280;42848;42.524;12.052;2022-09-17T10:46:50;95410.69;;;22.80;100.00
56944;BME280;42848;42.524;12.052;2022-09-17T10:49:31;95413.41;;;23.00;100.00
56944;BME280;42848;42.524;12.052;2022-09-17T10:52:05;95413.25;;;22.55;100.00
56944;BME280;42848;42.524;12.052;2022-09-17T10:58:10;95442.91;;;22.54;100.00
56944;BME280;42848;42.524;12.052;2022-09-17T11:00:16;95450.75;;;22.56;100.00
56944;BME280;42848;42.524;12.052;2022-09-17T11:05:43;95443.13;;;22.80;100.00
56944;BME280;42848;42.524;12.052;2022-09-17T11:11:17;95437.59;;;22.80;100.00
56944;BME280;42848;42.524;12.052;2022-09-17T11:16:39;95441.13;;;22.80;100.00
56944;BME280;42848;42.524;12.052;2022-09-17T11:27:50;95459.50;;;22.90;100.00
56944;BME280;42848;42.524;12.052;2022-09-17T11:30:20;95451.44;;;23.12;100.00
56944;BME280;42848;42.524;12.052;2022-09-17T11:35:40;95447.56;;;23.26;100.00
56944;BME280;42848;42.524;12.052;2022-09-17T11:38:15;95477.59;;;23.27;100.00
56944;BME280;42848;42.524;12.052;2022-09-17T11:40:55;95495.00;;;22.56;91.93
56944;BME280;42848;42.524;12.052;2022-09-17T11:43:41;95482.91;;;20.35;99.41
56944;BME280;42848;42.524;12.052;2022-09-17T11:46:21;95502.53;;;20.71;96.13
56944;BME280;42848;42.524;12.052;2022-09-17T11:51:29;95499.94;;;19.96;99.81
56944;BME280;42848;42.524;12.052;2022-09-17T11:54:15;95493.22;;;20.31;96.95
56944;BME280;42848;42.524;12.052;2022-09-17T11:56:46;95513.72;;;19.51;100.00
56944;BME280;42848;42.524;12.052;2022-09-17T11:59:29;95539.31;;;19.48;100.00
56944;BME280;42848;42.524;12.052;2022-09-17T12:02:09;95548.41;;;19.38;99.07
56944;BME280;42848;42.524;12.052;2022-09-17T12:09:56;95573.16;;;18.86;100.00
56944;BME280;42848;42.524;12.052;2022-09-17T12:12:25;95606.91;;;18.94;100.00
56944;BME280;42848;42.524;12.052;2022-09-17T12:15:02;95603.19;;;18.27;100.00
56944;BME280;42848;42.524;12.052;2022-09-17T12:17:48;95608.72;;;18.09;100.00
56944;BME280;42848;42.524;12.052;2022-09-17T12:20:27;95587.13;;;18.29;100.00
56944;BME280;42848;42.524;12.052;2022-09-17T12:22:57;95583.66;;;18.04;100.00
56944;BME280;42848;42.524;12.052;2022-09-17T12:25:33;95589.66;;;18.86;100.00
56944;BME280;42848;42.524;12.052;2022-09-17T12:28:11;95587.38;;;18.60;100.00
56944;BME280;42848;42.524;12.052;2022-09-17T12:30:45;95607.59;;;17.82;100.00
56944;BME280;42848;42.524;12.052;2022-09-17T12:33:33;95609.56;;;17.81;100.00
56944;BME280;42848;42.524;12.052;2022-09-17T12:37:02;95618.16;;;18.05;100.00
56944;BME280;42848;42.524;12.052;2022-09-17T12:42:01;95652.66;;;17.49;100.00
56944;BME280;42848;42.524;12.052;2022-09-17T12:50:01;95666.41;;;17.56;100.00
56944;BME280;42848;42.524;12.052;2022-09-17T13:00:39;95694.19;;;17.29;100.00
56944;BME280;42848;42.524;12.052;2022-09-17T13:03:27;95702.00;;;17.24;100.00
56944;BME280;42848;42.524;12.052;2022-09-17T13:11:48;95746.50;;;16.85;92.02
56944;BME280;42848;42.524;12.052;2022-09-17T13:16:59;95750.19;;;15.97;97.50
56944;BME280;42848;42.524;12.052;2022-09-17T13:22:22;95751.94;;;15.75;98.96
56944;BME280;42848;42.524;12.052;2022-09-17T13:25:08;95772.00;;;15.86;99.94
56944;BME280;42848;42.524;12.052;2022-09-17T13:27:36;95762.78;;;15.64;100.00
56944;BME280;42848;42.524;12.052;2022-09-17T13:30:07;95803.97;;;15.45;100.00
56944;BME280;42848;42.524;12.052;2022-09-17T13:40:16;95828.75;;;15.59;99.60
56944;BME280;42848;42.524;12.052;2022-09-17T13:42:48;95795.78;;;15.15;100.00
56944;BME280;42848;42.524;12.052;2022-09-17T13:45:17;95813.25;;;15.37;100.00
56944;BME280;42848;42.524;12.052;2022-09-17T13:47:59;95814.97;;;15.49;100.00
56944;BME280;42848;42.524;12.052;2022-09-17T13:50:30;95803.63;;;15.17;100.00
56944;BME280;42848;42.524;12.052;2022-09-17T14:16:30;95808.03;;;15.92;100.00
56944;BME280;42848;42.524;12.052;2022-09-17T14:19:33;95807.41;;;15.72;100.00
56944;BME280;42848;42.524;12.052;2022-09-17T14:24:55;95806.78;;;16.30;100.00
56944;BME280;42848;42.524;12.052;2022-09-17T14:32:50;95792.00;;;15.94;97.70
56944;BME280;42848;42.524;12.052;2022-09-17T14:35:19;95789.56;;;15.82;98.30
56944;BME280;42848;42.524;12.052;2022-09-17T14:37:51;95785.59;;;15.79;93.84
56944;BME280;42848;42.524;12.052;2022-09-17T14:40:19;95778.66;;;15.89;94.05
56944;BME280;42848;42.524;12.052;2022-09-17T14:42:48;95769.41;;;16.04;92.93
56944;BME280;42848;42.524;12.052;2022-09-17T14:45:31;95787.22;;;15.84;92.77
56944;BME280;42848;42.524;12.052;2022-09-17T14:50:50;95787.88;;;16.14;91.56
56944;BME280;42848;42.524;12.052;2022-09-17T14:53:18;95799.03;;;15.95;90.01
56944;BME280;42848;42.524;12.052;2022-09-17T14:55:50;95798.88;;;16.21;89.68
56944;BME280;42848;42.524;12.052;2022-09-17T14:58:27;95806.94;;;16.00;89.05
56944;BME280;42848;42.524;12.052;2022-09-17T15:00:55;95804.38;;;16.21;90.64
56944;BME280;42848;42.524;12.052;2022-09-17T15:03:22;95812.97;;;16.24;88.90
56944;BME280;42848;42.524;12.052;2022-09-17T15:05:48;95810.53;;;16.63;88.53
56944;BME280;42848;42.524;12.052;2022-09-17T15:08:22;95824.41;;;16.33;88.48
56944;BME280;42848;42.524;12.052;2022-09-17T15:13:28;95844.78;;;15.95;88.23
56944;BME280;42848;42.524;12.052;2022-09-17T15:16:03;95820.22;;;16.46;90.43
56944;BME280;42848;42.524;12.052;2022-09-17T15:19:01;95816.25;;;15.96;90.41
56944;BME280;42848;42.524;12.052;2022-09-17T15:21:39;95821.91;;;16.13;90.83
56944;BME280;42848;42.524;12.052;2022-09-17T15:24:18;95819.75;;;16.37;90.96
56944;BME280;42848;42.524;12.052;2022-09-17T15:26:51;95831.50;;;16.37;88.55
56944;BME280;42848;42.524;12.052;2022-09-17T15:29:21;95850.13;;;16.21;89.96
56944;BME280;42848;42.524;12.052;2022-09-17T15:31:48;95846.44;;;16.47;86.72
56944;BME280;42848;42.524;12.052;2022-09-17T15:34:13;95850.22;;;16.32;87.67
56944;BME280;42848;42.524;12.052;2022-09-17T15:36:39;95858.94;;;16.44;86.74
56944;BME280;42848;42.524;12.052;2022-09-17T15:39:27;95865.97;;;16.42;85.85
56944;BME280;42848;42.524;12.052;2022-09-17T15:41:57;95858.81;;;16.30;88.26
56944;BME280;42848;42.524;12.052;2022-09-17T15:44:24;95863.53;;;16.30;88.42
56944;BME280;42848;42.524;12.052;2022-09-17T15:46:51;95870.41;;;16.13;86.91
56944;BME280;42848;42.524;12.052;2022-09-17T15:49:33;95871.41;;;16.38;88.04
56944;BME280;42848;42.524;12.052;2022-09-17T15:54:49;95873.78;;;16.40;89.63
56944;BME280;42848;42.524;12.052;2022-09-17T15:57:15;95876.13;;;16.38;90.83
56944;BME280;42848;42.524;12.052;2022-09-17T15:59:41;95895.16;;;15.90;92.06
56944;BME280;42848;42.524;12.052;2022-09-17T16:02:28;95894.06;;;15.95;91.84
56944;BME280;42848;42.524;12.052;2022-09-17T16:07:45;95909.22;;;15.85;94.56